Time;durP1;ratioP1;P1;durP2;ratioP2;P2;SDS_P1;SDS_P2;PMS_P1;PMS_P2;Temp;Humidity;BMP_temperature;BMP_pressure;BME280_temperature;BME280_humidity;BME280_pressure;Samples;Min_cycle;Max_cycle;Signal;HPM_P1;HPM_P2
2021/10/26 00:02:23;;;;;;;8.73;6.65;;;2.80;99.90;;;;;;4734091;30;20063;-79
2021/10/26 00:04:51;;;;;;;6.50;5.53;;;2.80;99.90;;;;;;4736613;29;20549;-79
2021/10/26 00:07:19;;;;;;;7.50;6.45;;;3.00;99.90;;;;;;4785746;30;20062;-78
2021/10/26 00:09:46;;;;;;;8.75;7.25;;;3.00;99.90;;;;;;4769193;30;20081;-79
2021/10/26 00:12:14;;;;;;;6.32;5.82;;;3.10;99.90;;;;;;4785937;30;20063;-80
2021/10/26 00:14:42;;;;;;;9.35;6.60;;;3.00;99.90;;;;;;4769498;30;20052;-81
2021/10/26 00:17:10;;;;;;;6.82;5.38;;;2.90;99.90;;;;;;4751906;30;20052;-81
2021/10/26 00:19:38;;;;;;;8.48;6.85;;;2.90;99.90;;;;;;4768160;30;20063;-81
2021/10/26 00:22:06;;;;;;;9.48;7.55;;;3.00;99.90;;;;;;4767138;30;20059;-81
2021/10/26 00:24:33;;;;;;;5.70;5.18;;;2.90;99.90;;;;;;4751854;30;20063;-81
2021/10/26 00:27:01;;;;;;;7.78;7.05;;;2.90;99.90;;;;;;4751354;30;20063;-78
2021/10/26 00:29:29;;;;;;;6.15;5.60;;;2.80;99.90;;;;;;4767086;30;20530;-79
2021/10/26 00:31:57;;;;;;;8.57;7.25;;;2.80;99.90;;;;;;4753276;30;20056;-80
2021/10/26 00:34:24;;;;;;;8.07;5.18;;;2.80;99.90;;;;;;4771077;30;20048;-81
2021/10/26 00:36:54;;;;;;;6.05;5.45;;;2.80;99.90;;;;;;4771332;30;20075;-78
2021/10/26 00:39:21;;;;;;;6.93;5.00;;;2.70;99.90;;;;;;4740738;30;20506;-80
2021/10/26 00:41:49;;;;;;;11.27;5.32;;;2.60;99.90;;;;;;4725584;30;20447;-81
2021/10/26 00:44:18;;;;;;;8.57;6.32;;;2.40;99.90;;;;;;4740458;30;20497;-82
2021/10/26 00:46:47;;;;;;;7.18;5.25;;;2.10;99.90;;;;;;4739816;30;20506;-82
2021/10/26 00:49:16;;;;;;;6.50;5.90;;;2.20;99.90;;;;;;4740323;30;20402;-84
2021/10/26 00:51:45;;;;;;;9.05;5.35;;;2.10;99.90;;;;;;4740500;30;20051;-83
2021/10/26 00:54:13;;;;;;;8.00;6.15;;;2.10;99.90;;;;;;4754517;30;20470;-82
2021/10/26 00:56:48;;;;;;;5.97;5.47;;;2.20;99.90;;;;;;4754608;30;20520;-83
2021/10/26 00:59:16;;;;;;;6.13;5.45;;;2.30;99.90;;;;;;4754663;30;20056;-83
2021/10/26 01:01:47;;;;;;;13.02;5.38;;;2.30;99.90;;;;;;4761641;30;20517;-83
2021/10/26 01:04:17;;;;;;;6.20;4.70;;;2.10;99.90;;;;;;4759867;30;20054;-83
2021/10/26 01:06:46;;;;;;;15.48;9.07;;;1.70;99.90;;;;;;4772681;29;20055;-83
2021/10/26 01:09:18;;;;;;;8.25;6.25;;;1.60;99.90;;;;;;4757862;30;20043;-83
2021/10/26 01:11:46;;;;;;;7.53;6.45;;;1.60;99.90;;;;;;4773320;30;20051;-83
2021/10/26 01:14:16;;;;;;;7.40;6.10;;;1.70;99.90;;;;;;4772873;29;20082;-83
2021/10/26 01:16:44;;;;;;;7.90;7.25;;;1.70;99.90;;;;;;4772923;29;20055;-83
2021/10/26 01:19:15;;;;;;;6.75;4.65;;;1.70;99.90;;;;;;4744581;30;20409;-83
2021/10/26 01:21:43;;;;;;;6.28;5.68;;;1.70;99.90;;;;;;4772934;30;20066;-83
2021/10/26 01:24:11;;;;;;;7.07;5.80;;;1.60;99.90;;;;;;4758618;30;20062;-83
2021/10/26 01:26:38;;;;;;;9.52;7.50;;;1.40;99.90;;;;;;4739621;30;20522;-83
2021/10/26 01:29:06;;;;;;;7.53;6.05;;;1.40;99.90;;;;;;4751050;30;20079;-80
2021/10/26 01:31:38;;;;;;;6.70;5.80;;;1.40;99.90;;;;;;4736478;30;20486;-80
2021/10/26 01:34:22;;;;;;;7.40;5.38;;;1.40;99.90;;;;;;4738682;30;20056;-80
2021/10/26 01:36:50;;;;;;;5.07;4.65;;;1.50;99.90;;;;;;4736078;30;20063;-80
2021/10/26 01:39:18;;;;;;;7.13;6.47;;;1.60;99.90;;;;;;4766396;30;20554;-80
2021/10/26 01:41:46;;;;;;;6.68;5.20;;;1.80;99.90;;;;;;4752110;30;20052;-80
2021/10/26 01:44:14;;;;;;;6.10;5.22;;;2.10;99.90;;;;;;4735577;30;20056;-80
2021/10/26 01:46:44;;;;;;;7.30;6.30;;;2.40;99.90;;;;;;4735709;30;20056;-80
2021/10/26 01:49:17;;;;;;;4.95;4.45;;;2.30;99.90;;;;;;4720854;30;20048;-80
2021/10/26 01:51:46;;;;;;;8.95;5.45;;;2.20;99.90;;;;;;4734704;30;20491;-80
2021/10/26 01:54:14;;;;;;;5.40;4.93;;;1.90;99.90;;;;;;4720176;30;20585;-83
2021/10/26 01:56:44;;;;;;;7.40;6.53;;;1.70;99.90;;;;;;4720835;30;20063;-82
2021/10/26 01:59:25;;;;;;;5.72;5.22;;;1.60;99.90;;;;;;4750362;30;20102;-82
2021/10/26 02:01:53;;;;;;;8.25;6.68;;;1.50;99.90;;;;;;4735489;30;20415;-82
2021/10/26 02:04:32;;;;;;;6.50;5.95;;;1.60;99.90;;;;;;4749097;30;20043;-82
2021/10/26 02:07:01;;;;;;;4.97;4.50;;;1.80;99.90;;;;;;4771072;30;20502;-82
2021/10/26 02:09:31;;;;;;;4.85;4.25;;;2.00;99.90;;;;;;4771235;30;20058;-83
2021/10/26 02:11:59;;;;;;;6.97;4.68;;;2.00;99.90;;;;;;4772002;30;20051;-83
2021/10/26 02:14:27;;;;;;;6.38;5.45;;;2.00;99.90;;;;;;4758697;30;20056;-83
2021/10/26 02:16:58;;;;;;;7.22;4.40;;;2.10;99.90;;;;;;4750596;30;20044;-82
2021/10/26 02:19:26;;;;;;;8.38;5.00;;;2.00;99.90;;;;;;4752118;30;20056;-82
2021/10/26 02:21:54;;;;;;;7.32;4.40;;;2.10;99.90;;;;;;4735428;30;20055;-82
2021/10/26 02:24:22;;;;;;;7.15;4.38;;;1.90;99.90;;;;;;4721229;30;20052;-82
2021/10/26 02:26:51;;;;;;;14.50;4.90;;;1.90;99.90;;;;;;4735495;30;20056;-83
2021/10/26 02:29:20;;;;;;;9.15;3.63;;;1.70;99.90;;;;;;4735095;30;20793;-82
2021/10/26 02:31:53;;;;;;;6.05;5.43;;;1.60;99.90;;;;;;4765194;30;20063;-83
2021/10/26 02:34:21;;;;;;;3.90;3.60;;;1.60;99.90;;;;;;4750233;30;20056;-82
2021/10/26 02:36:50;;;;;;;6.43;5.32;;;1.70;99.90;;;;;;4727105;30;20813;-82
2021/10/26 02:39:18;;;;;;;5.75;5.35;;;1.60;99.90;;;;;;4735649;30;20427;-82
2021/10/26 02:41:46;;;;;;;7.22;5.15;;;1.60;99.90;;;;;;4735308;30;20687;-82
2021/10/26 02:44:15;;;;;;;3.60;3.30;;;1.60;99.90;;;;;;4729219;30;20499;-83
2021/10/26 02:46:44;;;;;;;4.00;3.70;;;1.70;99.90;;;;;;4742685;30;20059;-83
2021/10/26 02:49:14;;;;;;;6.50;4.68;;;1.50;99.90;;;;;;4735331;30;20566;-83
2021/10/26 02:51:42;;;;;;;6.68;4.22;;;1.60;99.90;;;;;;4750095;30;20513;-83
2021/10/26 02:54:10;;;;;;;3.22;3.03;;;1.60;99.90;;;;;;4734929;30;20063;-82
2021/10/26 02:56:38;;;;;;;4.47;4.13;;;1.80;99.90;;;;;;4734007;30;20052;-83
2021/10/26 02:59:06;;;;;;;6.68;4.47;;;1.80;99.90;;;;;;4735028;30;20060;-83
2021/10/26 03:01:37;;;;;;;6.55;3.88;;;1.80;99.90;;;;;;4736930;30;20063;-83
2021/10/26 03:04:05;;;;;;;4.43;4.03;;;1.80;99.90;;;;;;4753837;30;20050;-82
2021/10/26 03:06:32;;;;;;;9.30;4.22;;;1.90;99.90;;;;;;4737681;30;20062;-82
2021/10/26 03:09:00;;;;;;;6.57;3.85;;;1.90;99.90;;;;;;4768678;30;20047;-83
2021/10/26 03:11:32;;;;;;;17.67;4.28;;;1.90;99.90;;;;;;4751653;30;20506;-82
2021/10/26 03:14:05;;;;;;;3.72;3.42;;;1.70;99.90;;;;;;4734682;30;20656;-82
2021/10/26 03:16:33;;;;;;;4.47;4.07;;;1.40;99.90;;;;;;4734984;30;20048;-83
2021/10/26 03:19:04;;;;;;;16.48;6.63;;;1.30;99.90;;;;;;4734144;30;20048;-82
2021/10/26 03:21:34;;;;;;;14.40;4.80;;;1.30;99.90;;;;;;4735076;30;20047;-83
2021/10/26 03:24:03;;;;;;;7.90;5.10;;;1.30;99.90;;;;;;4734931;30;20063;-83
2021/10/26 03:26:31;;;;;;;4.85;3.75;;;1.30;99.90;;;;;;4749201;30;20051;-83
2021/10/26 03:28:58;;;;;;;5.25;4.20;;;1.30;99.90;;;;;;4749322;30;20395;-83
2021/10/26 03:31:27;;;;;;;5.25;3.65;;;1.40;99.90;;;;;;4734232;30;20048;-83
2021/10/26 03:34:13;;;;;;;5.63;3.88;;;1.40;99.90;;;;;;4750402;30;20048;-83
2021/10/26 03:36:41;;;;;;;4.90;4.45;;;1.40;99.90;;;;;;4719828;30;20060;-83
2021/10/26 03:39:09;;;;;;;5.18;3.95;;;1.30;99.90;;;;;;4743560;30;20056;-83
2021/10/26 03:41:36;;;;;;;5.72;3.55;;;1.30;99.90;;;;;;4719826;30;20530;-83
2021/10/26 03:44:04;;;;;;;4.18;3.80;;;1.30;99.90;;;;;;4749202;30;20056;-83
2021/10/26 03:46:35;;;;;;;6.00;5.30;;;1.30;99.90;;;;;;4719703;30;20059;-83
2021/10/26 03:49:04;;;;;;;3.55;3.25;;;1.30;99.90;;;;;;4750311;30;20055;-84
2021/10/26 03:51:33;;;;;;;3.83;3.45;;;1.20;99.90;;;;;;4734772;30;20048;-83
2021/10/26 03:54:02;;;;;;;3.33;3.13;;;1.20;99.90;;;;;;4748865;30;20052;-83
2021/10/26 03:56:33;;;;;;;4.45;3.60;;;1.30;99.90;;;;;;4734536;30;20056;-83
2021/10/26 03:59:05;;;;;;;5.95;4.30;;;1.20;99.90;;;;;;4738941;30;20060;-83
2021/10/26 04:01:33;;;;;;;4.05;3.65;;;1.20;99.90;;;;;;4747982;30;20052;-83
2021/10/26 04:04:01;;;;;;;6.78;4.55;;;1.20;99.90;;;;;;4731825;30;20062;-83
2021/10/26 04:06:32;;;;;;;7.18;3.85;;;1.10;99.90;;;;;;4769244;30;20776;-83
2021/10/26 04:09:11;;;;;;;5.03;4.28;;;1.30;99.90;;;;;;4769431;30;20059;-83
2021/10/26 04:11:50;;;;;;;4.93;4.00;;;1.40;99.90;;;;;;4769800;30;20060;-83
2021/10/26 04:14:18;;;;;;;6.78;4.28;;;1.50;99.90;;;;;;4776634;30;20054;-83
2021/10/26 04:16:47;;;;;;;4.80;4.38;;;1.60;99.90;;;;;;4766262;30;20050;-83
2021/10/26 04:19:17;;;;;;;6.38;5.78;;;1.60;99.90;;;;;;4724711;30;20056;-84
2021/10/26 04:21:45;;;;;;;4.40;4.00;;;1.60;99.90;;;;;;4748625;30;20044;-83
2021/10/26 04:24:13;;;;;;;6.50;4.45;;;1.60;99.90;;;;;;4733396;30;20056;-85
2021/10/26 04:26:40;;;;;;;4.28;3.88;;;1.70;99.90;;;;;;4746812;30;20510;-83
2021/10/26 04:29:08;;;;;;;4.05;3.58;;;1.70;99.90;;;;;;4731718;30;20055;-83
2021/10/26 04:31:36;;;;;;;4.93;4.47;;;1.80;99.90;;;;;;4746136;30;20048;-83
2021/10/26 04:34:04;;;;;;;4.72;4.30;;;1.80;99.90;;;;;;4717495;30;20062;-82
2021/10/26 04:36:31;;;;;;;3.83;3.33;;;1.80;99.90;;;;;;4748713;30;20052;-80
2021/10/26 04:38:59;;;;;;;3.85;3.33;;;1.80;99.90;;;;;;4747240;30;20495;-80
2021/10/26 04:41:27;;;;;;;3.67;3.17;;;1.80;99.90;;;;;;4731579;30;20099;-81
2021/10/26 04:43:57;;;;;;;4.35;3.40;;;1.80;99.90;;;;;;4746916;30;20060;-81
2021/10/26 04:46:25;;;;;;;4.00;3.70;;;1.60;99.90;;;;;;4746539;30;20522;-83
2021/10/26 04:48:52;;;;;;;3.33;2.53;;;1.60;99.90;;;;;;4748510;30;20052;-80
2021/10/26 04:51:21;;;;;;;2.50;2.25;;;1.40;99.90;;;;;;4714756;30;20259;-80
2021/10/26 04:53:49;;;;;;;6.75;3.22;;;1.50;99.90;;;;;;4714843;30;20211;-79
2021/10/26 04:56:17;;;;;;;2.75;2.55;;;1.50;99.90;;;;;;4715138;30;20052;-79
2021/10/26 04:59:03;;;;;;;5.45;3.40;;;1.50;99.90;;;;;;4729321;30;20060;-80
2021/10/26 05:01:31;;;;;;;2.92;2.10;;;1.70;99.90;;;;;;4713364;30;20040;-81
2021/10/26 05:04:00;;;;;;;2.83;2.53;;;1.70;99.90;;;;;;4719801;30;20044;-80
2021/10/26 05:06:28;;;;;;;3.25;3.05;;;1.60;99.90;;;;;;4765943;30;20787;-78
2021/10/26 05:08:56;;;;;;;3.25;2.95;;;1.30;99.90;;;;;;4751223;30;20047;-77
2021/10/26 05:11:24;;;;;;;3.22;3.03;;;1.40;99.90;;;;;;4765869;30;20055;-79
2021/10/26 05:13:52;;;;;;;7.00;2.95;;;1.30;99.90;;;;;;4751360;30;20414;-81
2021/10/26 05:16:25;;;;;;;3.17;2.88;;;1.40;99.90;;;;;;4752002;30;20059;-79
2021/10/26 05:19:21;;;;;;;3.95;2.35;;;1.40;99.90;;;;;;4726492;30;20429;-79
2021/10/26 05:22:07;;;;;;;4.65;2.65;;;1.60;99.90;;;;;;4770438;30;20052;-79
2021/10/26 05:24:54;;;;;;;3.75;3.08;;;1.70;99.90;;;;;;4735367;30;20420;-80
2021/10/26 05:27:37;;;;;;;3.38;2.60;;;1.70;99.90;;;;;;4722629;30;20833;-80
2021/10/26 05:30:06;;;;;;;3.13;2.88;;;1.80;99.90;;;;;;4709121;30;20044;-80
2021/10/26 05:32:38;;;;;;;3.00;2.60;;;1.80;99.90;;;;;;4734352;30;20452;-83
2021/10/26 05:35:11;;;;;;;3.75;2.47;;;1.90;99.90;;;;;;4722481;30;20064;-84
2021/10/26 05:37:39;;;;;;;2.90;2.13;;;2.00;99.90;;;;;;4719986;30;20063;-83
2021/10/26 05:40:08;;;;;;;2.67;2.47;;;2.00;99.90;;;;;;4732929;30;20056;-84
2021/10/26 05:42:36;;;;;;;3.22;2.58;;;1.90;99.90;;;;;;4746405;30;20053;-83
2021/10/26 05:45:05;;;;;;;2.88;2.55;;;1.90;99.90;;;;;;4715306;30;20056;-83
2021/10/26 05:47:35;;;;;;;4.28;2.55;;;1.90;99.90;;;;;;4717877;30;20504;-83
2021/10/26 05:50:03;;;;;;;2.90;2.63;;;1.90;99.90;;;;;;4720360;30;20793;-83
2021/10/26 05:52:32;;;;;;;7.43;2.95;;;1.80;99.90;;;;;;4736551;30;20061;-82
2021/10/26 05:55:00;;;;;;;1.90;1.80;;;1.90;99.90;;;;;;4716668;30;20322;-82
2021/10/26 05:57:32;;;;;;;3.47;3.22;;;1.70;99.90;;;;;;4703072;30;20041;-82
2021/10/26 06:00:03;;;;;;;3.83;3.17;;;1.60;99.90;;;;;;4715283;30;20056;-81
2021/10/26 06:02:38;;;;;;;3.38;2.70;;;1.50;99.90;;;;;;4731984;30;20049;-84
2021/10/26 06:05:06;;;;;;;2.22;2.13;;;1.50;99.90;;;;;;4749603;30;20048;-84
2021/10/26 06:07:35;;;;;;;3.65;2.70;;;1.60;99.90;;;;;;4735737;30;20439;-83
2021/10/26 06:10:04;;;;;;;4.60;2.70;;;1.60;99.90;;;;;;4733673;30;20254;-84
2021/10/26 06:12:32;;;;;;;2.65;2.45;;;1.60;99.90;;;;;;4734811;30;20090;-84
2021/10/26 06:15:00;;;;;;;2.83;2.63;;;1.40;99.90;;;;;;4723461;30;20052;-84
2021/10/26 06:17:28;;;;;;;2.85;2.65;;;1.60;99.90;;;;;;4748865;30;20048;-85
2021/10/26 06:19:56;;;;;;;4.43;3.30;;;1.70;99.90;;;;;;4719915;30;20420;-84
2021/10/26 06:22:24;;;;;;;6.40;5.13;;;1.70;99.90;;;;;;4733958;30;20065;-84
2021/10/26 06:24:52;;;;;;;10.57;2.58;;;1.80;99.90;;;;;;4733508;30;20534;-85
2021/10/26 06:27:20;;;;;;;3.33;3.03;;;1.90;99.90;;;;;;4724193;30;20052;-77
2021/10/26 06:29:49;;;;;;;2.97;2.67;;;2.00;99.90;;;;;;4731451;30;20518;-77
2021/10/26 06:32:19;;;;;;;7.28;2.63;;;2.10;99.90;;;;;;4750743;30;20052;-78
2021/10/26 06:35:11;;;;;;;;;;;2.40;99.90;;;;;;4720398;30;20059;-78
2021/10/26 06:37:42;;;;;;;7.40;2.40;;;2.60;99.90;;;;;;4748129;30;19933;-78
2021/10/26 06:40:12;;;;;;;2.15;2.05;;;2.70;99.90;;;;;;4738740;30;20060;-78
2021/10/26 06:42:51;;;;;;;3.53;2.80;;;2.80;99.90;;;;;;4749591;30;20403;-78
2021/10/26 06:45:45;;;;;;;3.72;2.72;;;2.80;99.90;;;;;;4735996;30;20574;-78
2021/10/26 06:48:48;;;;;;;3.35;2.33;;;2.90;99.90;;;;;;4666008;30;20055;-78
2021/10/26 06:51:34;;;;;;;2.97;2.67;;;2.90;99.90;;;;;;4728096;30;20079;-78
2021/10/26 06:54:20;;;;;;;3.13;2.83;;;2.90;99.90;;;;;;4744457;30;20048;-78
2021/10/26 06:57:07;;;;;;;3.60;2.70;;;3.00;99.90;;;;;;4733409;30;20055;-78
2021/10/26 06:59:53;;;;;;;4.00;2.33;;;3.10;99.90;;;;;;4732071;30;20061;-78
2021/10/26 07:02:51;;;;;;;3.25;2.95;;;3.20;99.90;;;;;;4733184;30;20053;-78
2021/10/26 07:05:38;;;;;;;3.90;2.47;;;3.30;99.90;;;;;;4761227;30;20796;-78
2021/10/26 07:08:24;;;;;;;3.80;3.28;;;3.40;99.90;;;;;;4768701;30;20063;-78
2021/10/26 07:11:17;;;;;;;5.40;4.05;;;3.40;99.90;;;;;;4779974;30;20064;-78
2021/10/26 07:13:45;;;;;;;4.22;3.45;;;3.40;99.90;;;;;;4768143;30;20052;-78
2021/10/26 07:16:12;;;;;;;3.30;2.75;;;3.40;99.90;;;;;;4768430;30;20089;-78
2021/10/26 07:18:40;;;;;;;3.40;3.03;;;3.50;99.90;;;;;;4752198;30;20055;-78
2021/10/26 07:21:08;;;;;;;2.67;2.47;;;3.60;99.90;;;;;;4767945;30;20047;-78
2021/10/26 07:23:56;;;;;;;2.33;2.03;;;3.80;99.90;;;;;;4749208;30;20063;-78
2021/10/26 07:26:54;;;;;;;4.45;3.47;;;3.70;99.90;;;;;;4719434;30;20060;-78
2021/10/26 07:29:24;;;;;;;6.05;3.47;;;3.70;99.90;;;;;;4716537;30;20475;-78
2021/10/26 07:31:53;;;;;;;3.65;3.30;;;3.80;99.90;;;;;;4733080;30;20498;-78
2021/10/26 07:34:22;;;;;;;3.03;2.70;;;3.90;99.90;;;;;;4717028;30;20064;-78
2021/10/26 07:36:52;;;;;;;3.55;2.97;;;4.10;99.90;;;;;;4732709;30;20060;-78
2021/10/26 07:41:56;;;;;;;4.17;3.20;;;4.30;99.90;;;;;;4716595;30;20057;-78
2021/10/26 07:44:59;;;;;;;3.30;2.42;;;4.50;99.90;;;;;;4712076;30;20060;-78
2021/10/26 07:47:29;;;;;;;4.40;4.00;;;4.60;99.90;;;;;;4714146;30;20060;-78
2021/10/26 07:49:58;;;;;;;4.70;3.03;;;4.70;99.90;;;;;;4716331;30;20503;-78
2021/10/26 07:52:29;;;;;;;3.70;3.22;;;4.80;99.90;;;;;;4717480;30;20053;-85
2021/10/26 07:55:20;;;;;;;4.90;4.47;;;5.10;99.90;;;;;;4713109;30;20079;-86
2021/10/26 07:57:55;;;;;;;3.78;3.47;;;5.40;99.90;;;;;;4717680;30;20815;-85
2021/10/26 08:00:25;;;;;;;3.38;3.05;;;5.60;99.90;;;;;;4730588;30;20059;-85
2021/10/26 08:03:12;;;;;;;4.30;3.92;;;5.70;99.90;;;;;;4703579;30;20064;-85
2021/10/26 08:05:56;;;;;;;4.78;4.10;;;5.80;99.90;;;;;;4736917;30;20056;-85
2021/10/26 08:08:24;;;;;;;3.75;3.45;;;6.00;99.90;;;;;;4752312;30;20066;-85
2021/10/26 08:10:54;;;;;;;4.68;3.83;;;6.10;99.90;;;;;;4736364;30;20063;-79
2021/10/26 08:13:22;;;;;;;5.60;3.35;;;6.20;99.90;;;;;;4767014;30;20067;-79
2021/10/26 08:15:51;;;;;;;4.50;3.22;;;6.30;99.90;;;;;;4740927;30;20403;-78
2021/10/26 08:18:20;;;;;;;7.85;2.90;;;6.40;99.90;;;;;;4734426;30;20491;-78
2021/10/26 08:20:48;;;;;;;7.07;3.47;;;6.40;99.90;;;;;;4748923;30;20052;-79
2021/10/26 08:23:20;;;;;;;4.07;3.30;;;6.40;99.90;;;;;;4757855;30;20063;-85
2021/10/26 08:25:53;;;;;;;12.10;6.05;;;6.40;99.90;;;;;;4748556;30;20077;-85
2021/10/26 08:28:26;;;;;;;4.60;3.83;;;6.40;99.90;;;;;;4749336;30;20063;-85
2021/10/26 08:31:02;;;;;;;4.43;3.47;;;6.50;99.90;;;;;;4741263;30;20056;-85
2021/10/26 08:34:04;;;;;;;5.38;4.07;;;6.50;99.90;;;;;;4748560;30;20056;-85
2021/10/26 08:36:30;;;;;;;5.63;4.25;;;6.60;99.90;;;;;;4719042;30;20111;-79
2021/10/26 08:38:59;;;;;;;7.88;4.40;;;6.90;99.90;;;;;;4748435;30;20502;-79
2021/10/26 08:41:29;;;;;;;4.75;4.00;;;7.20;99.90;;;;;;4748281;30;20059;-85
2021/10/26 08:43:58;;;;;;;21.42;4.35;;;7.40;99.90;;;;;;4748719;30;20068;-85
2021/10/26 08:46:26;;;;;;;5.93;5.32;;;7.60;99.90;;;;;;4748177;30;20044;-85
2021/10/26 08:48:55;;;;;;;4.65;4.22;;;7.80;99.90;;;;;;4733899;30;20068;-85
2021/10/26 08:51:54;;;;;;;4.85;4.07;;;8.00;99.90;;;;;;4734103;30;20053;-85
2021/10/26 08:54:25;;;;;;;5.75;3.65;;;8.20;99.90;;;;;;4735162;30;20056;-85
2021/10/26 08:57:13;;;;;;;3.60;3.30;;;8.40;99.90;;;;;;4739809;30;20063;-86
2021/10/26 09:00:07;;;;;;;7.20;4.25;;;8.80;99.90;;;;;;4739145;30;20064;-85
2021/10/26 09:02:42;;;;;;;10.38;4.45;;;9.10;99.90;;;;;;4722419;30;20071;-85
2021/10/26 09:05:16;;;;;;;7.47;3.60;;;9.40;99.90;;;;;;4733300;30;20062;-79
2021/10/26 09:08:08;;;;;;;4.20;3.40;;;9.60;99.90;;;;;;4755136;30;20059;-79
2021/10/26 09:10:38;;;;;;;6.40;5.78;;;9.60;99.90;;;;;;4769013;30;20060;-79
2021/10/26 09:16:50;;;;;;;5.65;3.17;;;10.00;99.90;;;;;;4770512;30;20403;-85
2021/10/26 09:19:42;;;;;;;3.42;2.70;;;10.10;99.90;;;;;;4757478;30;20375;-85
2021/10/26 09:22:31;;;;;;;5.65;4.15;;;10.10;99.90;;;;;;4763803;30;20055;-79
2021/10/26 09:25:13;;;;;;;4.43;4.03;;;10.20;99.90;;;;;;4732098;30;20410;-85
2021/10/26 09:27:41;;;;;;;5.05;3.92;;;10.20;99.90;;;;;;4734210;30;20060;-79
2021/10/26 09:30:11;;;;;;;4.13;3.40;;;10.30;99.90;;;;;;4747752;30;20065;-79
2021/10/26 09:32:45;;;;;;;6.23;3.80;;;10.30;99.90;;;;;;4733770;30;20075;-79
2021/10/26 09:35:16;;;;;;;4.70;3.83;;;10.30;99.90;;;;;;4735399;30;20057;-85
2021/10/26 09:37:48;;;;;;;9.93;3.80;;;10.30;99.90;;;;;;4733283;30;20504;-85
2021/10/26 09:40:16;;;;;;;4.53;3.33;;;10.30;99.90;;;;;;4755378;30;20076;-85
2021/10/26 09:42:49;;;;;;;4.70;4.20;;;10.50;99.90;;;;;;4728799;30;20051;-85
2021/10/26 09:45:23;;;;;;;4.50;4.03;;;10.80;99.90;;;;;;4756695;30;20052;-85
2021/10/26 09:47:59;;;;;;;4.57;4.05;;;11.10;99.90;;;;;;4766127;30;20055;-85
2021/10/26 09:50:31;;;;;;;11.93;4.45;;;11.10;99.90;;;;;;4748188;30;20047;-85
2021/10/26 09:53:08;;;;;;;4.68;4.07;;;11.20;99.90;;;;;;4757691;30;20499;-85
2021/10/26 09:55:43;;;;;;;19.45;5.88;;;11.20;99.90;;;;;;4730864;30;20056;-85
2021/10/26 09:58:17;;;;;;;6.00;5.28;;;11.20;99.90;;;;;;4728535;30;20060;-85
2021/10/26 10:00:47;;;;;;;8.25;4.78;;;11.30;99.90;;;;;;4728198;30;20067;-85
2021/10/26 10:03:22;;;;;;;10.57;6.13;;;11.20;99.90;;;;;;4749163;30;20060;-87
2021/10/26 10:05:56;;;;;;;20.70;8.20;;;10.90;99.90;;;;;;4751339;30;20433;-87
2021/10/26 10:08:35;;;;;;;8.15;5.53;;;10.50;99.90;;;;;;4760449;30;20051;-86
2021/10/26 10:11:10;;;;;;;7.95;5.35;;;10.40;99.90;;;;;;4758330;30;20056;-86
2021/10/26 10:13:42;;;;;;;9.70;6.13;;;10.40;99.90;;;;;;4766570;30;20059;-86
2021/10/26 10:16:14;;;;;;;9.60;6.15;;;10.40;99.90;;;;;;4721283;30;20052;-85
2021/10/26 10:18:47;;;;;;;8.27;7.00;;;10.40;99.90;;;;;;4734689;30;20056;-84
2021/10/26 10:21:18;;;;;;;11.40;7.18;;;10.50;99.90;;;;;;4752601;30;20064;-85
2021/10/26 10:23:47;;;;;;;19.25;6.43;;;10.60;99.90;;;;;;4719982;30;20060;-86
2021/10/26 10:26:17;;;;;;;8.88;5.75;;;10.80;99.90;;;;;;4749872;30;20067;-84
2021/10/26 10:28:47;;;;;;;10.18;6.18;;;11.00;99.90;;;;;;4741159;30;20063;-84
2021/10/26 10:31:19;;;;;;;7.53;5.27;;;11.10;99.90;;;;;;4731692;30;20058;-84
2021/10/26 10:33:48;;;;;;;9.57;6.25;;;11.10;99.90;;;;;;4766141;30;20664;-83
2021/10/26 10:36:18;;;;;;;10.55;8.20;;;11.20;99.90;;;;;;4781208;30;20052;-84
2021/10/26 10:38:47;;;;;;;12.52;7.10;;;11.10;99.90;;;;;;4751397;30;20056;-85
2021/10/26 10:41:28;;;;;;;13.05;7.53;;;11.10;99.90;;;;;;4757607;30;20142;-86
2021/10/26 10:44:03;;;;;;;6.78;5.65;;;11.20;99.90;;;;;;4747097;30;20060;-86
2021/10/26 10:46:34;;;;;;;9.93;7.13;;;11.30;99.90;;;;;;4731888;30;20372;-87
2021/10/26 10:49:34;;;;;;;10.85;5.88;;;11.40;99.90;;;;;;4736214;30;20349;-81
2021/10/26 10:52:13;;;;;;;9.43;7.32;;;11.50;99.90;;;;;;4724931;30;20059;-80
2021/10/26 10:57:36;;;;;;;6.93;4.95;;;11.60;99.90;;;;;;4759011;30;20055;-80
2021/10/26 11:00:22;;;;;;;7.00;4.47;;;11.60;99.90;;;;;;4759889;30;20072;-80
2021/10/26 11:02:55;;;;;;;7.68;6.25;;;11.90;99.90;;;;;;4725587;30;20047;-80
2021/10/26 11:05:36;;;;;;;5.05;4.65;;;12.00;99.90;;;;;;4744365;30;20059;-86
2021/10/26 11:08:15;;;;;;;10.52;5.60;;;11.90;99.90;;;;;;4746734;30;20303;-86
2021/10/26 11:10:50;;;;;;;5.78;5.13;;;12.00;99.90;;;;;;4728652;30;20502;-84
2021/10/26 11:13:27;;;;;;;5.10;4.60;;;12.00;99.90;;;;;;4737499;30;20044;-85
2021/10/26 11:16:06;;;;;;;10.18;4.32;;;11.90;99.90;;;;;;4737117;30;20060;-84
2021/10/26 11:18:50;;;;;;;9.88;7.10;;;12.00;99.90;;;;;;4747584;30;20064;-83
2021/10/26 11:21:24;;;;;;;6.22;4.25;;;11.80;99.90;;;;;;4750563;30;20063;-83
2021/10/26 11:23:59;;;;;;;5.88;3.95;;;11.80;99.90;;;;;;4766091;30;20624;-86
2021/10/26 11:26:34;;;;;;;7.90;5.50;;;11.80;99.90;;;;;;4705973;30;20495;-83
2021/10/26 11:29:08;;;;;;;5.03;4.63;;;11.80;99.90;;;;;;4718218;30;20371;-84
2021/10/26 11:31:48;;;;;;;5.47;4.95;;;11.80;99.90;;;;;;4744251;30;20057;-80
2021/10/26 11:34:32;;;;;;;7.68;3.97;;;11.80;99.90;;;;;;4703081;30;20052;-84
2021/10/26 11:37:11;;;;;;;7.22;3.67;;;11.80;99.90;;;;;;4745946;30;20052;-82
2021/10/26 11:39:42;;;;;;;7.32;4.97;;;11.90;99.90;;;;;;4752217;30;20442;-82
2021/10/26 11:42:12;;;;;;;8.07;5.55;;;11.80;99.90;;;;;;4731445;30;20608;-83
2021/10/26 11:44:42;;;;;;;6.10;4.57;;;11.70;99.90;;;;;;4748628;30;20063;-82
2021/10/26 11:47:10;;;;;;;5.78;3.75;;;11.70;99.90;;;;;;4734853;30;20048;-83
2021/10/26 11:49:38;;;;;;;6.47;4.10;;;11.70;99.90;;;;;;4734258;30;20789;-84
2021/10/26 11:52:07;;;;;;;7.75;3.85;;;11.70;99.90;;;;;;4748877;30;20064;-84
2021/10/26 11:54:40;;;;;;;9.60;4.35;;;11.60;99.90;;;;;;4733641;30;20044;-83
2021/10/26 11:57:11;;;;;;;13.90;5.78;;;11.60;99.90;;;;;;4734291;30;20048;-79
2021/10/26 11:59:44;;;;;;;8.50;3.90;;;11.50;99.90;;;;;;4731201;30;20057;-79
2021/10/26 12:02:18;;;;;;;6.03;5.10;;;11.40;99.90;;;;;;4749708;30;20048;-80
2021/10/26 12:04:56;;;;;;;8.30;4.25;;;11.30;99.90;;;;;;4739533;30;20530;-80
2021/10/26 12:07:34;;;;;;;8.05;4.78;;;11.20;99.90;;;;;;4737381;30;20052;-84
2021/10/26 12:10:24;;;;;;;6.93;4.80;;;11.20;99.90;;;;;;4754017;30;20047;-82
2021/10/26 12:13:07;;;;;;;6.00;4.68;;;11.20;99.90;;;;;;4718686;30;20045;-83
2021/10/26 12:15:35;;;;;;;8.95;5.88;;;11.20;99.90;;;;;;4735683;30;20177;-83
2021/10/26 12:18:06;;;;;;;9.02;4.43;;;11.20;99.90;;;;;;4734847;30;20048;-85
2021/10/26 12:20:34;;;;;;;;;;;11.20;99.90;;;;;;4757846;30;20058;-83
2021/10/26 12:23:07;;;;;;;10.32;3.95;;;11.20;99.90;;;;;;4756007;30;19926;-85
2021/10/26 12:25:46;;;;;;;6.57;4.97;;;11.30;99.90;;;;;;4747842;30;20522;-84
2021/10/26 12:28:15;;;;;;;4.80;3.67;;;11.30;99.90;;;;;;4765348;30;20055;-84
2021/10/26 12:30:46;;;;;;;7.05;4.93;;;11.30;99.90;;;;;;4766911;30;20052;-85
2021/10/26 12:33:23;;;;;;;7.70;4.68;;;11.60;99.90;;;;;;4753314;30;20674;-84
2021/10/26 12:35:56;;;;;;;8.30;5.07;;;11.70;99.90;;;;;;4762475;30;20055;-83
2021/10/26 12:38:36;;;;;;;7.53;4.53;;;12.00;99.90;;;;;;4739802;30;20556;-84
2021/10/26 12:41:17;;;;;;;12.23;4.72;;;11.90;99.90;;;;;;4740157;30;20044;-86
2021/10/26 12:44:01;;;;;;;6.60;4.20;;;11.70;99.90;;;;;;4753298;30;20747;-86
2021/10/26 12:46:30;;;;;;;7.00;5.25;;;11.60;99.90;;;;;;4722026;30;20052;-79
2021/10/26 12:49:13;;;;;;;5.95;5.10;;;11.60;99.90;;;;;;4718148;30;20040;-84
2021/10/26 12:51:42;;;;;;;24.77;7.03;;;11.60;99.90;;;;;;4754582;30;20055;-83
2021/10/26 12:54:15;;;;;;;7.28;5.43;;;11.60;99.90;;;;;;4769528;29;20060;-85
2021/10/26 12:56:48;;;;;;;6.75;5.47;;;11.50;99.90;;;;;;4746052;30;20083;-83
2021/10/26 12:59:17;;;;;;;7.05;4.63;;;11.50;99.90;;;;;;4726863;30;20481;-84
2021/10/26 13:01:49;;;;;;;8.45;4.80;;;11.50;99.90;;;;;;4730789;30;20052;-85
2021/10/26 13:04:24;;;;;;;7.00;4.70;;;11.50;99.90;;;;;;4732342;30;20067;-84
2021/10/26 13:07:07;;;;;;;10.98;6.85;;;11.40;99.90;;;;;;4768308;30;20427;-83
2021/10/26 13:09:50;;;;;;;5.03;3.92;;;11.30;99.90;;;;;;4770375;30;20048;-84
2021/10/26 13:12:30;;;;;;;7.70;5.30;;;11.30;99.90;;;;;;4740513;30;20075;-84
2021/10/26 13:15:16;;;;;;;10.93;5.20;;;11.30;99.90;;;;;;4757520;30;20438;-85
2021/10/26 13:17:47;;;;;;;9.70;4.88;;;11.20;99.90;;;;;;4736601;30;20044;-82
2021/10/26 13:20:33;;;;;;;5.37;4.87;;;11.20;99.90;;;;;;4737134;30;20052;-86
2021/10/26 13:23:14;;;;;;;5.38;4.70;;;11.20;99.90;;;;;;4762751;30;20058;-85
2021/10/26 13:25:46;;;;;;;7.28;5.85;;;11.40;99.90;;;;;;4760226;30;20151;-84
2021/10/26 13:28:17;;;;;;;7.68;5.10;;;11.50;99.90;;;;;;4752538;30;20067;-84
2021/10/26 13:30:52;;;;;;;8.05;5.70;;;11.60;99.90;;;;;;4735143;30;20472;-82
2021/10/26 13:33:40;;;;;;;9.43;5.88;;;12.00;99.90;;;;;;4767178;30;20055;-80